Isuzu — 3FSN6 — position and weather

sailwx.info

Track history (hours):
 
Tides and Currents Weather Stations Pressure Air Temp Water Temp Dewpoint Dewpoint Depression Visibility Wind Speed Wind Dir Waves Ship Positions

Isuzu

Last reported at 2017-Oct-15 00:25 UTC. Time now 2017-Nov-21 12:08 UTC.
Position N 04°03' W 002°27'.
Warning: this ship's position is 37 days out of date.

Length 145 m; draft 7.4 m.

Type: Cargo ship. MMSI: 371884000.

Date/timePositionNaut miles runAvg speedWind from/ knotsBaromVisibWave heightAir tempDewpointWater temp
2017-Oct-15 00:25N 04°03' W 002°27'510.8
2017-Oct-14 23:57N 04°06' W 002°23'511.0
2017-Oct-14 23:30N 04°10' W 002°20'611.6
2017-Oct-14 23:00N 04°14' W 002°15'611.2
2017-Oct-14 22:29N 04°18' W 002°11'510.5
2017-Oct-14 21:59N 04°22' W 002°08'611.3
2017-Oct-14 21:29N 04°25' W 002°04'511.2
2017-Oct-14 20:59N 04°29' W 001°59'29 0.6
2017-Oct-12 19:50N 04°53' W 001°44'25 1.3
2017-Oct-12 00:50N 04°31' W 001°57'410.9
2017-Oct-12 00:27N 04°28' W 001°60'511.0
2017-Oct-11 23:59N 04°24' W 002°03'510.8
2017-Oct-11 23:30N 04°22' W 002°08'612.2
2017-Oct-11 23:00N 04°18' W 002°13'714.4
2017-Oct-11 22:30N 04°12' W 002°17'714.5
2017-Oct-11 22:00N 04°07' W 002°23'814.8
2017-Oct-11 21:27N 04°01' W 002°28'613.6
2017-Oct-11 21:00N 04°00' W 002°34'814.4
2017-Oct-11 20:25N 04°00' W 002°43'614.6
2017-Oct-11 20:00N 04°00' W 002°49'714.7
2017-Oct-11 19:30N 04°00' W 002°56'814.5
2017-Oct-11 18:57N 03°60' W 003°04'1914.3
2017-Oct-11 17:38N 04°00' W 003°23'  
Track history (hours):
 
Tides and Currents Weather Stations Pressure Air Temp Water Temp Dewpoint Dewpoint Depression Visibility Wind Speed Wind Dir Waves Ship Positions

Isuzu

Last reported at 2017-Oct-15 00:25 UTC. Time now 2017-Nov-21 12:08 UTC.
Position N 04°03' W 002°27'.
Warning: this ship's position is 37 days out of date.

Length 145 m; draft 7.4 m.

Type: Cargo ship. MMSI: 371884000.

Date/timePositionNaut miles runAvg speedWind from/ knotsBaromVisibWave heightAir tempDewpointWater temp
2017-Oct-15 00:25N 04°03' W 002°27'510.8
2017-Oct-14 23:57N 04°06' W 002°23'511.0
2017-Oct-14 23:30N 04°10' W 002°20'611.6
2017-Oct-14 23:00N 04°14' W 002°15'611.2
2017-Oct-14 22:29N 04°18' W 002°11'510.5
2017-Oct-14 21:59N 04°22' W 002°08'611.3
2017-Oct-14 21:29N 04°25' W 002°04'511.2
2017-Oct-14 20:59N 04°29' W 001°59'29 0.6
2017-Oct-12 19:50N 04°53' W 001°44'25 1.3
2017-Oct-12 00:50N 04°31' W 001°57'410.9
2017-Oct-12 00:27N 04°28' W 001°60'511.0
2017-Oct-11 23:59N 04°24' W 002°03'510.8
2017-Oct-11 23:30N 04°22' W 002°08'612.2
2017-Oct-11 23:00N 04°18' W 002°13'714.4
2017-Oct-11 22:30N 04°12' W 002°17'714.5
2017-Oct-11 22:00N 04°07' W 002°23'814.8
2017-Oct-11 21:27N 04°01' W 002°28'613.6
2017-Oct-11 21:00N 04°00' W 002°34'814.4
2017-Oct-11 20:25N 04°00' W 002°43'614.6
2017-Oct-11 20:00N 04°00' W 002°49'714.7
2017-Oct-11 19:30N 04°00' W 002°56'814.5
2017-Oct-11 18:57N 03°60' W 003°04'1914.3
2017-Oct-11 17:38N 04°00' W 003°23'  

Dump ship's entire track history